createdAt,value
2022-09-15T00:01:20.754Z,69.51
2022-09-15T00:03:49.249Z,69.60
2022-09-15T00:06:17.729Z,69.62
2022-09-15T00:08:45.635Z,69.64
2022-09-15T00:11:21.031Z,69.65
2022-09-15T00:13:49.789Z,69.76
2022-09-15T00:16:19.643Z,69.79
2022-09-15T00:18:47.890Z,69.70
2022-09-15T00:21:19.289Z,69.62
2022-09-15T00:23:48.338Z,69.64
2022-09-15T00:26:20.328Z,69.67
2022-09-15T00:28:48.692Z,69.67
2022-09-15T00:31:20.713Z,69.73
2022-09-15T00:33:50.797Z,69.74
2022-09-15T00:36:19.799Z,69.84
2022-09-15T00:38:48.469Z,69.76
2022-09-15T00:41:19.339Z,69.74
2022-09-15T00:43:53.964Z,69.65
2022-09-15T00:46:34.325Z,69.69
2022-09-15T00:49:14.752Z,69.66
2022-09-15T00:51:45.561Z,69.71
2022-09-15T00:54:19.030Z,69.75
2022-09-15T00:56:50.256Z,69.84
2022-09-15T00:59:23.273Z,69.96
2022-09-15T01:01:58.863Z,69.92
2022-09-15T01:04:27.394Z,69.83
2022-09-15T01:07:02.348Z,69.77
2022-09-15T01:09:50.111Z,69.72
2022-09-15T01:12:18.515Z,69.73
2022-09-15T01:14:46.335Z,69.78
2022-09-15T01:17:35.262Z,69.72
2022-09-15T01:20:34.672Z,69.74
2022-09-15T01:23:44.930Z,69.83
2022-09-15T01:26:27.930Z,69.88
2022-09-15T01:29:17.741Z,69.93
2022-09-15T01:32:27.442Z,69.95
2022-09-15T01:35:25.823Z,69.91
2022-09-15T01:38:21.143Z,69.82
2022-09-15T01:41:05.421Z,69.89
2022-09-15T01:43:36.944Z,69.89
2022-09-15T01:46:06.247Z,69.99
2022-09-15T01:48:36.015Z,70.01
2022-09-15T01:51:06.470Z,70.01
2022-09-15T01:53:35.439Z,69.98
2022-09-15T01:56:07.621Z,69.86
2022-09-15T01:58:38.381Z,69.96
2022-09-15T02:01:18.663Z,69.91
2022-09-15T02:03:55.654Z,70.02
2022-09-15T02:06:39.887Z,69.97
2022-09-15T02:09:12.883Z,70.04
2022-09-15T02:11:52.408Z,69.90
2022-09-15T02:14:31.356Z,69.72
2022-09-15T02:16:59.175Z,69.74
2022-09-15T02:19:41.856Z,69.73
2022-09-15T02:22:23.566Z,69.89
2022-09-15T02:25:06.033Z,69.78
2022-09-15T02:27:44.442Z,69.80
2022-09-15T02:30:16.085Z,69.77
2022-09-15T02:32:49.882Z,69.78
2022-09-15T02:35:18.292Z,69.67
2022-09-15T02:37:46.863Z,69.72
2022-09-15T02:40:14.923Z,69.74
2022-09-15T02:42:53.962Z,69.89
2022-09-15T02:45:23.243Z,69.91
2022-09-15T02:47:51.300Z,69.67
2022-09-15T02:50:20.630Z,69.52
2022-09-15T02:52:48.747Z,69.66
2022-09-15T02:55:16.612Z,69.77
2022-09-15T02:57:44.426Z,69.86
2022-09-15T03:00:14.683Z,69.97
2022-09-15T03:02:46.164Z,69.96
2022-09-15T03:05:15.610Z,69.93
2022-09-15T03:07:43.469Z,69.83
2022-09-15T03:10:12.916Z,69.91
2022-09-15T03:12:44.056Z,69.84
2022-09-15T03:15:13.854Z,69.94
2022-09-15T03:17:43.240Z,70.02
2022-09-15T03:20:13.135Z,70.00
2022-09-15T03:22:41.517Z,69.95
2022-09-15T03:25:10.760Z,70.04
2022-09-15T03:27:38.728Z,70.07
2022-09-15T03:30:07.788Z,70.25
2022-09-15T03:32:36.651Z,70.27
2022-09-15T03:35:07.043Z,70.24
2022-09-15T03:37:34.980Z,70.31
2022-09-15T03:40:04.373Z,70.36
2022-09-15T03:42:32.474Z,70.33
2022-09-15T03:45:00.311Z,70.52
2022-09-15T03:47:28.153Z,70.27
2022-09-15T03:49:55.954Z,70.27
2022-09-15T03:52:24.018Z,70.25
2022-09-15T03:54:51.896Z,70.47
2022-09-15T03:57:19.728Z,70.29
2022-09-15T03:59:48.054Z,70.34
2022-09-15T04:02:16.101Z,70.36
2022-09-15T04:04:44.475Z,70.45
2022-09-15T04:07:12.278Z,70.32
2022-09-15T04:09:40.311Z,70.53
2022-09-15T04:12:08.173Z,70.42
2022-09-15T04:14:35.941Z,70.40
2022-09-15T04:17:03.891Z,70.43
2022-09-15T04:19:32.085Z,70.45
2022-09-15T04:21:59.901Z,70.32
2022-09-15T04:24:27.942Z,70.62
2022-09-15T04:26:55.759Z,70.63
2022-09-15T04:29:23.582Z,70.66
2022-09-15T04:31:53.146Z,70.58
2022-09-15T04:34:21.121Z,70.54
2022-09-15T04:36:49.040Z,70.65
2022-09-15T04:39:16.797Z,70.81
2022-09-15T04:41:44.606Z,70.70
2022-09-15T04:44:12.725Z,70.78
2022-09-15T04:46:40.701Z,70.62
2022-09-15T04:49:08.570Z,70.68
2022-09-15T04:51:36.358Z,70.71
2022-09-15T04:54:04.406Z,70.73
2022-09-15T04:56:32.238Z,70.69
2022-09-15T04:59:03.886Z,70.85
2022-09-15T05:01:35.503Z,70.90
2022-09-15T05:04:04.470Z,70.94
2022-09-15T05:06:35.152Z,70.88
2022-09-15T05:09:10.019Z,70.76
2022-09-15T05:11:38.776Z,70.71
2022-09-15T05:14:07.011Z,70.80
2022-09-15T05:16:35.902Z,70.66
2022-09-15T05:19:04.787Z,70.80
2022-09-15T05:21:33.948Z,70.85
2022-09-15T05:24:02.082Z,70.80
2022-09-15T05:26:30.208Z,70.75
2022-09-15T05:28:58.093Z,71.00
2022-09-15T05:31:31.605Z,70.74
2022-09-15T05:34:04.475Z,70.79
2022-09-15T05:36:33.251Z,70.72
2022-09-15T05:39:02.000Z,70.77
2022-09-15T05:41:31.229Z,70.63
2022-09-15T05:43:59.454Z,70.53
2022-09-15T05:46:29.544Z,70.59
2022-09-15T05:48:58.781Z,70.57
2022-09-15T05:51:27.475Z,70.65
2022-09-15T05:53:56.010Z,70.61
2022-09-15T05:56:24.564Z,70.39
2022-09-15T05:58:52.603Z,70.48
2022-09-15T06:01:24.395Z,70.42
2022-09-15T06:03:53.702Z,70.33
2022-09-15T06:06:23.314Z,70.27
2022-09-15T06:09:15.992Z,70.16
2022-09-15T06:11:43.837Z,70.06
2022-09-15T06:14:13.500Z,70.16
2022-09-15T06:16:41.345Z,70.11
2022-09-15T06:19:09.229Z,69.94
2022-09-15T06:21:36.973Z,69.59
2022-09-15T06:24:07.312Z,69.79
2022-09-15T06:26:35.965Z,69.92
2022-09-15T06:29:05.502Z,69.92
2022-09-15T06:31:35.911Z,69.83
2022-09-15T06:34:05.895Z,69.74
2022-09-15T06:36:33.913Z,69.69
2022-09-15T06:39:01.722Z,69.77
2022-09-15T06:41:47.032Z,69.46
2022-09-15T06:44:21.907Z,69.53
2022-09-15T06:46:50.143Z,69.38
2022-09-15T06:49:19.729Z,69.53
2022-09-15T06:51:48.632Z,69.11
2022-09-15T06:54:17.019Z,69.29
2022-09-15T06:56:47.301Z,69.44
2022-09-15T06:59:16.977Z,69.32
2022-09-15T07:01:55.512Z,69.33
2022-09-15T07:04:23.451Z,69.24
2022-09-15T07:06:51.289Z,69.20
2022-09-15T07:09:19.908Z,69.10
2022-09-15T07:11:47.847Z,68.89
2022-09-15T07:14:17.162Z,69.09
2022-09-15T07:16:47.725Z,68.91
2022-09-15T07:19:16.581Z,68.70
2022-09-15T07:21:44.652Z,68.70
2022-09-15T07:24:13.199Z,68.44
2022-09-15T07:26:42.243Z,68.85
2022-09-15T07:29:10.092Z,68.76
2022-09-15T07:31:39.486Z,68.61
2022-09-15T07:34:10.590Z,68.61
2022-09-15T07:36:39.077Z,68.65
2022-09-15T07:39:08.078Z,68.58
2022-09-15T07:41:36.864Z,68.13
2022-09-15T07:44:08.315Z,68.09
2022-09-15T07:46:36.518Z,68.21
2022-09-15T07:49:06.867Z,68.15
2022-09-15T07:51:35.939Z,68.49
2022-09-15T07:54:03.917Z,68.13
2022-09-15T07:56:32.460Z,68.31
2022-09-15T07:59:00.542Z,68.09
2022-09-15T08:01:28.474Z,67.95
2022-09-15T08:04:02.043Z,67.77
2022-09-15T08:06:32.641Z,67.46
2022-09-15T08:09:02.224Z,67.48
2022-09-15T08:11:31.072Z,67.36
2022-09-15T08:14:03.361Z,67.23
2022-09-15T08:16:31.777Z,67.13
2022-09-15T08:19:00.235Z,66.96
2022-09-15T08:21:33.776Z,67.04
2022-09-15T08:24:02.204Z,66.77
2022-09-15T08:26:31.162Z,67.10
2022-09-15T08:28:59.510Z,66.44
2022-09-15T08:31:27.362Z,66.82
2022-09-15T08:33:56.692Z,66.65
2022-09-15T08:36:28.164Z,66.56
2022-09-15T08:38:56.951Z,66.54
2022-09-15T08:41:29.640Z,66.41
2022-09-15T08:44:36.201Z,66.56
2022-09-15T08:47:18.978Z,66.31
2022-09-15T08:50:05.600Z,66.00
2022-09-15T08:52:48.698Z,65.87
2022-09-15T08:55:53.980Z,65.60
2022-09-15T08:58:29.209Z,65.53
2022-09-15T09:01:41.294Z,65.52
2022-09-15T09:04:32.314Z,65.55
2022-09-15T09:07:52.969Z,65.66
2022-09-15T09:11:10.173Z,65.46
2022-09-15T09:13:46.901Z,65.55
2022-09-15T09:16:52.982Z,65.70
2022-09-15T09:20:16.348Z,65.24
2022-09-15T09:22:48.797Z,65.15
2022-09-15T09:25:27.370Z,64.85
2022-09-15T09:28:01.964Z,64.55
2022-09-15T09:30:33.376Z,64.32
2022-09-15T09:33:26.501Z,64.38
2022-09-15T09:35:55.636Z,64.28
2022-09-15T09:38:36.801Z,64.02
2022-09-15T09:41:26.941Z,63.75
2022-09-15T09:43:56.508Z,63.29
2022-09-15T09:46:24.796Z,63.69
2022-09-15T09:48:57.496Z,63.45
2022-09-15T09:52:04.827Z,63.26
2022-09-15T09:54:35.630Z,63.72
2022-09-15T09:57:31.493Z,63.44
2022-09-15T09:59:59.778Z,63.23
2022-09-15T10:02:28.871Z,63.01
2022-09-15T10:05:22.644Z,63.00
2022-09-15T10:07:50.889Z,62.77
2022-09-15T10:10:24.447Z,62.76
2022-09-15T10:12:56.863Z,62.36
2022-09-15T10:15:27.883Z,62.77
2022-09-15T10:17:56.762Z,62.92
2022-09-15T10:20:51.309Z,62.83
2022-09-15T10:23:31.368Z,62.67
2022-09-15T10:26:22.159Z,62.49
2022-09-15T10:29:17.185Z,62.53
2022-09-15T10:31:49.327Z,62.20
2022-09-15T10:34:32.181Z,62.47
2022-09-15T10:37:37.247Z,62.41
2022-09-15T10:40:20.890Z,62.35
2022-09-15T10:43:00.522Z,61.99
2022-09-15T10:45:48.482Z,61.26
2022-09-15T10:48:26.511Z,61.56
2022-09-15T10:51:20.080Z,61.54
2022-09-15T10:54:22.458Z,61.64
2022-09-15T10:56:59.294Z,61.55
2022-09-15T10:59:44.420Z,61.63
2022-09-15T11:02:33.830Z,61.36
2022-09-15T11:05:26.869Z,61.42
2022-09-15T11:08:34.201Z,61.50
2022-09-15T11:11:34.866Z,61.46
2022-09-15T11:14:52.108Z,60.76
2022-09-15T11:17:34.299Z,61.04
2022-09-15T11:20:47.153Z,61.29
2022-09-15T11:24:00.144Z,61.45
2022-09-15T11:26:53.441Z,61.47
2022-09-15T11:29:34.992Z,60.79
2022-09-15T11:32:19.575Z,60.67
2022-09-15T11:35:00.031Z,60.74
2022-09-15T11:37:56.893Z,60.51
2022-09-15T11:40:37.803Z,60.30
2022-09-15T11:43:36.093Z,60.07
2022-09-15T11:46:13.622Z,59.96
2022-09-15T11:48:54.528Z,60.07
2022-09-15T11:51:28.597Z,60.11
2022-09-15T11:54:08.237Z,60.15
2022-09-15T11:56:42.772Z,60.64
2022-09-15T11:59:50.358Z,60.44
2022-09-15T12:02:31.082Z,60.44
2022-09-15T12:05:11.814Z,60.45
2022-09-15T12:08:12.989Z,60.31
2022-09-15T12:10:45.855Z,60.31
2022-09-15T12:13:26.488Z,60.40
2022-09-15T12:15:55.617Z,60.43
2022-09-15T12:19:02.183Z,60.43
2022-09-15T12:21:48.738Z,60.46
2022-09-15T12:24:34.935Z,60.56
2022-09-15T12:27:14.527Z,60.49
2022-09-15T12:29:52.809Z,60.45
2022-09-15T12:32:35.230Z,60.55
2022-09-15T12:35:07.922Z,60.54
2022-09-15T12:38:13.569Z,60.60
2022-09-15T12:40:44.277Z,60.70
2022-09-15T12:43:26.128Z,60.65
2022-09-15T12:46:01.925Z,60.78
2022-09-15T12:48:36.748Z,60.74
2022-09-15T12:51:23.445Z,60.59
2022-09-15T12:53:59.505Z,60.38
2022-09-15T12:56:29.789Z,60.20
2022-09-15T12:59:06.762Z,60.16
2022-09-15T13:01:47.844Z,60.01
2022-09-15T13:04:53.433Z,59.92
2022-09-15T13:07:34.788Z,59.55
2022-09-15T13:10:29.392Z,59.48
2022-09-15T13:13:18.750Z,59.66
2022-09-15T13:15:50.931Z,59.37
2022-09-15T13:18:26.051Z,59.84
2022-09-15T13:21:00.606Z,59.83
2022-09-15T13:23:34.279Z,59.57
2022-09-15T13:26:11.987Z,59.49
2022-09-15T13:28:40.261Z,58.48
2022-09-15T13:31:34.675Z,58.35
2022-09-15T13:38:15.138Z,59.08
2022-09-15T13:41:19.894Z,58.85
2022-09-15T13:44:25.488Z,58.85
2022-09-15T13:47:31.729Z,58.90
2022-09-15T13:50:31.266Z,59.28
2022-09-15T13:53:06.835Z,59.06
2022-09-15T13:55:38.817Z,58.79
2022-09-15T14:01:07.833Z,58.99
2022-09-15T14:03:57.300Z,59.04
2022-09-15T14:06:31.315Z,59.05
2022-09-15T14:09:06.621Z,58.92
2022-09-15T14:11:37.907Z,58.96
2022-09-15T14:14:29.442Z,58.67
2022-09-15T14:16:57.517Z,58.92
2022-09-15T14:19:50.300Z,58.88
2022-09-15T14:22:29.547Z,58.77
2022-09-15T14:25:06.332Z,58.66
2022-09-15T14:27:38.401Z,58.73
2022-09-15T14:30:16.535Z,58.91
2022-09-15T14:32:47.007Z,58.74
2022-09-15T14:35:23.562Z,58.40
2022-09-15T14:37:58.270Z,58.44
2022-09-15T14:40:36.455Z,58.08
2022-09-15T14:43:25.984Z,57.79
2022-09-15T14:46:09.452Z,57.85
2022-09-15T14:48:37.312Z,57.33
2022-09-15T14:51:14.379Z,57.78
2022-09-15T14:53:44.766Z,57.50
2022-09-15T14:56:21.529Z,57.76
2022-09-15T14:58:55.595Z,57.87
2022-09-15T15:01:32.656Z,57.33
2022-09-15T15:04:31.379Z,57.33
2022-09-15T15:07:20.106Z,57.00
2022-09-15T15:10:06.267Z,57.02
2022-09-15T15:12:43.616Z,57.02
2022-09-15T15:15:19.021Z,56.77
2022-09-15T15:17:49.981Z,56.62
2022-09-15T15:20:25.667Z,56.55
2022-09-15T15:23:44.483Z,56.48
2022-09-15T15:26:36.209Z,56.19
2022-09-15T15:29:46.299Z,56.20
2022-09-15T15:32:42.990Z,56.17
2022-09-15T15:35:17.926Z,56.21
2022-09-15T15:37:49.744Z,56.37
2022-09-15T15:40:23.357Z,56.58
2022-09-15T15:42:59.382Z,56.73
2022-09-15T15:45:34.099Z,56.71
2022-09-15T15:48:04.429Z,56.92
2022-09-15T15:50:32.804Z,56.77
2022-09-15T15:53:02.670Z,56.90
2022-09-15T15:55:45.630Z,57.03
2022-09-15T15:58:15.443Z,56.92
2022-09-15T16:00:49.008Z,57.16
2022-09-15T16:03:18.927Z,57.18
2022-09-15T16:05:57.128Z,57.34
2022-09-15T16:08:41.813Z,57.45
2022-09-15T16:11:15.446Z,57.49
2022-09-15T16:13:47.106Z,57.36
2022-09-15T16:16:24.401Z,57.41
2022-09-15T16:18:52.675Z,57.54
2022-09-15T16:21:36.903Z,57.58
2022-09-15T16:24:05.995Z,57.70
2022-09-15T16:26:36.008Z,57.70
2022-09-15T16:29:04.480Z,57.73
2022-09-15T16:31:33.666Z,57.68
2022-09-15T16:34:02.628Z,57.83
2022-09-15T16:36:33.214Z,57.82
2022-09-15T16:39:04.696Z,57.82
2022-09-15T16:41:38.990Z,57.76
2022-09-15T16:44:17.754Z,57.67
2022-09-15T16:46:49.219Z,57.69
2022-09-15T16:49:17.711Z,57.71
2022-09-15T16:51:47.121Z,57.66
2022-09-15T16:54:18.242Z,57.62
2022-09-15T16:56:46.867Z,57.76
2022-09-15T16:59:14.808Z,57.70
2022-09-15T17:01:43.587Z,57.72
2022-09-15T17:04:15.931Z,57.71
2022-09-15T17:06:44.062Z,57.67
2022-09-15T17:09:15.585Z,57.61
2022-09-15T17:11:43.585Z,57.53
2022-09-15T17:14:18.867Z,57.76
2022-09-15T17:16:47.671Z,57.75
2022-09-15T17:19:16.114Z,57.77
2022-09-15T17:21:44.053Z,57.83
2022-09-15T17:24:13.451Z,57.99
2022-09-15T17:26:42.310Z,57.97
2022-09-15T17:29:10.502Z,58.10
2022-09-15T17:31:39.498Z,58.05
2022-09-15T17:34:14.575Z,58.08
2022-09-15T17:36:42.980Z,58.25
2022-09-15T17:39:11.866Z,58.24
2022-09-15T17:41:40.001Z,58.37
2022-09-15T17:44:11.724Z,58.34
2022-09-15T17:46:46.895Z,58.45
2022-09-15T17:49:17.876Z,58.47
2022-09-15T17:51:46.168Z,58.53
2022-09-15T17:54:14.430Z,58.45
2022-09-15T17:56:45.439Z,58.52
2022-09-15T17:59:16.216Z,58.59
2022-09-15T18:01:47.430Z,58.64
2022-09-15T18:04:18.447Z,58.66
2022-09-15T18:06:46.868Z,58.84
2022-09-15T18:09:16.204Z,58.80
2022-09-15T18:11:47.297Z,58.91
2022-09-15T18:14:15.601Z,58.83
2022-09-15T18:16:43.597Z,58.82
2022-09-15T18:19:14.612Z,58.90
2022-09-15T18:21:43.442Z,58.93
2022-09-15T18:24:15.205Z,58.91
2022-09-15T18:26:43.668Z,58.95
2022-09-15T18:29:12.758Z,58.99
2022-09-15T18:31:40.844Z,59.01
2022-09-15T18:34:10.480Z,59.07
2022-09-15T18:36:40.849Z,59.20
2022-09-15T18:39:12.570Z,59.20
2022-09-15T18:41:40.839Z,59.25
2022-09-15T18:44:09.269Z,59.25
2022-09-15T18:46:39.527Z,59.19
2022-09-15T18:49:09.684Z,59.20
2022-09-15T18:51:51.522Z,59.16
2022-09-15T18:54:20.285Z,59.05
2022-09-15T18:56:52.222Z,59.18
2022-09-15T18:59:23.557Z,59.18
2022-09-15T19:01:52.700Z,58.99
2022-09-15T19:04:21.038Z,59.16
2022-09-15T19:06:49.322Z,59.11
2022-09-15T19:09:18.688Z,59.22
2022-09-15T19:11:47.992Z,59.29
2022-09-15T19:14:16.147Z,59.19
2022-09-15T19:16:57.237Z,59.21
2022-09-15T19:19:25.990Z,59.11
2022-09-15T19:21:53.924Z,59.19
2022-09-15T19:24:22.574Z,59.03
2022-09-15T19:26:50.729Z,59.06
2022-09-15T19:29:18.952Z,59.07
2022-09-15T19:31:47.387Z,59.15
2022-09-15T19:34:18.582Z,59.24
2022-09-15T19:36:49.524Z,59.20
2022-09-15T19:39:17.802Z,59.23
2022-09-15T19:41:45.731Z,59.20
2022-09-15T19:44:16.585Z,59.33
2022-09-15T19:46:45.067Z,59.35
2022-09-15T19:49:13.144Z,59.32
2022-09-15T19:51:41.643Z,59.47
2022-09-15T19:54:09.954Z,59.54
2022-09-15T19:56:39.391Z,59.53
2022-09-15T19:59:07.238Z,59.52
2022-09-15T20:01:35.661Z,59.61
2022-09-15T20:04:06.495Z,59.67
2022-09-15T20:06:36.730Z,59.79
2022-09-15T20:09:06.946Z,59.62
2022-09-15T20:11:40.067Z,59.79
2022-09-15T20:14:12.172Z,59.85
2022-09-15T20:16:41.375Z,59.94
2022-09-15T20:19:10.289Z,59.87
2022-09-15T20:21:56.622Z,59.89
2022-09-15T20:24:26.250Z,59.85
2022-09-15T20:26:55.176Z,60.18
2022-09-15T20:29:24.817Z,60.03
2022-09-15T20:31:59.015Z,59.93
2022-09-15T20:34:27.604Z,60.10
2022-09-15T20:36:55.993Z,60.11
2022-09-15T20:39:25.078Z,60.18
2022-09-15T20:41:58.985Z,60.29
2022-09-15T20:44:27.875Z,60.19
2022-09-15T20:46:56.871Z,60.21
2022-09-15T20:49:25.873Z,60.25
2022-09-15T20:51:57.634Z,60.28
2022-09-15T20:54:25.819Z,60.37
2022-09-15T20:56:57.763Z,60.36
2022-09-15T20:59:31.614Z,60.26
2022-09-15T21:02:00.014Z,60.49
2022-09-15T21:04:28.509Z,60.50
2022-09-15T21:06:57.682Z,60.50
2022-09-15T21:09:26.063Z,60.53
2022-09-15T21:11:55.026Z,60.58
2022-09-15T21:14:25.842Z,60.63
2022-09-15T21:16:54.398Z,60.81
2022-09-15T21:19:22.787Z,60.80
2022-09-15T21:21:51.470Z,60.72
2022-09-15T21:24:19.572Z,60.65
2022-09-15T21:27:07.019Z,60.78
2022-09-15T21:29:35.920Z,61.06
2022-09-15T21:32:04.159Z,61.14
2022-09-15T21:34:32.408Z,60.90
2022-09-15T21:37:03.377Z,60.96
2022-09-15T21:39:31.524Z,60.97
2022-09-15T21:41:59.752Z,61.07
2022-09-15T21:44:33.180Z,61.12
2022-09-15T21:47:01.364Z,61.25
2022-09-15T21:49:30.117Z,61.38
2022-09-15T21:51:58.898Z,61.56
2022-09-15T21:54:32.423Z,61.39
2022-09-15T21:57:00.787Z,61.27
2022-09-15T21:59:29.007Z,61.27
2022-09-15T22:01:59.704Z,61.28
2022-09-15T22:04:30.794Z,61.45
2022-09-15T22:07:04.582Z,61.38
2022-09-15T22:09:34.026Z,61.56
2022-09-15T22:12:02.805Z,61.54
2022-09-15T22:14:33.598Z,61.49
2022-09-15T22:17:04.599Z,61.52
2022-09-15T22:19:32.627Z,61.69
2022-09-15T22:22:01.495Z,61.58
2022-09-15T22:24:32.670Z,61.80
2022-09-15T22:27:05.801Z,61.66
2022-09-15T22:29:34.055Z,61.74
2022-09-15T22:32:03.222Z,61.79
2022-09-15T22:34:33.941Z,61.72
2022-09-15T22:37:03.041Z,61.78
2022-09-15T22:39:57.464Z,61.82
2022-09-15T22:42:20.703Z,61.92
2022-09-15T22:44:49.328Z,61.90
2022-09-15T22:47:42.489Z,61.97
2022-09-15T22:50:11.907Z,61.99
2022-09-15T22:52:40.132Z,62.07
2022-09-15T22:55:09.372Z,62.02
2022-09-15T22:57:40.017Z,61.96
2022-09-15T23:00:10.339Z,62.03
2022-09-15T23:02:39.189Z,62.10
2022-09-15T23:05:07.521Z,62.18
2022-09-15T23:07:38.800Z,62.00
2022-09-15T23:10:12.048Z,62.08
2022-09-15T23:12:40.262Z,62.03
2022-09-15T23:15:10.990Z,62.04
2022-09-15T23:17:41.832Z,62.08
2022-09-15T23:20:11.775Z,61.87
2022-09-15T23:22:39.969Z,62.07
2022-09-15T23:25:09.194Z,62.10
2022-09-15T23:27:40.486Z,61.87
2022-09-15T23:30:10.815Z,61.98
2022-09-15T23:32:39.219Z,62.02
2022-09-15T23:35:09.815Z,61.87
2022-09-15T23:37:38.066Z,61.88
2022-09-15T23:40:07.517Z,61.90
2022-09-15T23:42:35.740Z,61.98
2022-09-15T23:45:04.636Z,61.91
2022-09-15T23:47:35.059Z,62.09
2022-09-15T23:50:05.852Z,62.02
2022-09-15T23:52:34.105Z,62.03
2022-09-15T23:55:02.584Z,61.98
2022-09-15T23:57:55.191Z,61.90
